createdAt,value
2019-05-17T00:00:32.810Z,9.01
2019-05-17T00:01:32.778Z,8.96
2019-05-17T00:02:32.763Z,9.02
2019-05-17T00:03:32.752Z,9.02
2019-05-17T00:04:32.741Z,9.01
2019-05-17T00:05:32.765Z,9.02
2019-05-17T00:06:32.720Z,9.02
2019-05-17T00:07:32.709Z,9.01
2019-05-17T00:08:34.796Z,8.99
2019-05-17T00:09:33.686Z,9.13
2019-05-17T00:10:32.676Z,9.11
2019-05-17T00:11:32.701Z,9.11
2019-05-17T00:12:32.656Z,9.11
2019-05-17T00:13:32.642Z,9.18
2019-05-17T00:14:32.633Z,9.20
2019-05-17T00:15:32.621Z,9.20
2019-05-17T00:16:32.612Z,9.18
2019-05-17T00:17:32.635Z,9.20
2019-05-17T00:18:32.589Z,9.21
2019-05-17T00:19:32.577Z,9.31
2019-05-17T00:20:32.568Z,9.18
2019-05-17T00:21:32.556Z,9.23
2019-05-17T00:22:32.544Z,9.21
2019-05-17T00:23:32.558Z,9.20
2019-05-17T00:24:32.522Z,9.24
2019-05-17T00:25:32.512Z,9.29
2019-05-17T00:26:32.501Z,9.23
2019-05-17T00:27:32.497Z,9.35
2019-05-17T00:28:32.515Z,9.35
2019-05-17T00:29:32.465Z,9.36
2019-05-17T00:30:32.454Z,9.32
2019-05-17T00:31:32.444Z,9.39
2019-05-17T00:32:32.433Z,9.36
2019-05-17T00:33:32.422Z,9.33
2019-05-17T00:34:32.447Z,9.29
2019-05-17T00:35:32.401Z,9.24
2019-05-17T00:36:32.388Z,9.35
2019-05-17T00:37:32.378Z,9.18
2019-05-17T00:38:45.577Z,9.21
2019-05-17T00:39:33.393Z,9.08
2019-05-17T00:40:32.345Z,9.01
2019-05-17T00:41:32.334Z,8.96
2019-05-17T00:42:32.328Z,8.80
2019-05-17T00:43:32.310Z,8.77
2019-05-17T00:44:32.302Z,8.73
2019-05-17T00:45:32.329Z,8.66
2019-05-17T00:46:32.278Z,8.79
2019-05-17T00:47:32.265Z,8.76
2019-05-17T00:48:32.254Z,8.65
2019-05-17T00:49:32.244Z,8.62
2019-05-17T00:50:32.233Z,8.71
2019-05-17T00:51:32.262Z,8.63
2019-05-17T00:52:32.209Z,8.66
2019-05-17T00:53:32.198Z,8.73
2019-05-17T00:54:32.189Z,8.65
2019-05-17T00:55:32.177Z,8.66
2019-05-17T00:56:32.167Z,8.66
2019-05-17T00:57:32.191Z,8.68
2019-05-17T00:58:32.145Z,8.68
2019-05-17T00:59:32.133Z,8.62
2019-05-17T01:00:32.124Z,8.62
2019-05-17T01:01:32.111Z,8.66
2019-05-17T01:02:32.101Z,8.73
2019-05-17T01:03:32.125Z,8.70
2019-05-17T01:04:32.076Z,8.62
2019-05-17T01:05:32.066Z,8.61
2019-05-17T01:06:32.055Z,8.61
2019-05-17T01:07:32.048Z,8.52
2019-05-17T01:08:32.041Z,8.56
2019-05-17T01:09:32.058Z,8.59
2019-05-17T01:10:32.010Z,8.52
2019-05-17T01:11:32.003Z,8.58
2019-05-17T01:12:31.990Z,8.50
2019-05-17T01:13:31.978Z,8.41
2019-05-17T01:14:31.965Z,8.53
2019-05-17T01:15:31.992Z,8.44
2019-05-17T01:16:31.945Z,8.55
2019-05-17T01:17:31.947Z,8.55
2019-05-17T01:18:31.928Z,8.52
2019-05-17T01:19:31.911Z,8.55
2019-05-17T01:20:31.900Z,8.53
2019-05-17T01:21:31.914Z,8.52
2019-05-17T01:22:31.878Z,8.41
2019-05-17T01:23:31.868Z,8.45
2019-05-17T01:24:31.856Z,8.47
2019-05-17T01:25:31.843Z,8.43
2019-05-17T01:26:31.872Z,8.55
2019-05-17T01:27:31.824Z,8.55
2019-05-17T01:28:31.813Z,8.53
2019-05-17T01:29:31.799Z,8.59
2019-05-17T01:30:31.789Z,8.61
2019-05-17T01:31:31.777Z,8.59
2019-05-17T01:32:31.793Z,8.62
2019-05-17T01:33:31.755Z,8.61
2019-05-17T01:34:31.744Z,8.56
2019-05-17T01:35:31.742Z,8.65
2019-05-17T01:36:31.721Z,8.68
2019-05-17T01:37:31.747Z,8.73
2019-05-17T01:38:31.699Z,8.62
2019-05-17T01:39:33.531Z,8.58
2019-05-17T01:40:31.678Z,8.62
2019-05-17T01:41:31.665Z,8.62
2019-05-17T01:42:31.656Z,8.59
2019-05-17T01:43:31.673Z,8.61
2019-05-17T01:44:31.633Z,8.63
2019-05-17T01:45:31.620Z,8.70
2019-05-17T01:46:31.609Z,8.70
2019-05-17T01:47:31.599Z,8.71
2019-05-17T01:48:31.624Z,8.74
2019-05-17T01:49:31.575Z,8.71
2019-05-17T01:50:31.564Z,8.76
2019-05-17T01:51:31.556Z,8.71
2019-05-17T01:52:31.543Z,8.79
2019-05-17T01:53:31.530Z,8.73
2019-05-17T01:54:31.559Z,8.73
2019-05-17T01:55:31.510Z,8.77
2019-05-17T01:56:31.498Z,8.77
2019-05-17T01:57:31.487Z,8.80
2019-05-17T01:58:31.491Z,8.76
2019-05-17T01:59:31.466Z,8.76
2019-05-17T02:00:31.503Z,8.76
2019-05-17T02:01:31.444Z,8.74
2019-05-17T02:02:31.432Z,8.73
2019-05-17T02:03:31.424Z,8.68
2019-05-17T02:04:31.409Z,8.71
2019-05-17T02:05:31.398Z,8.66
2019-05-17T02:06:31.429Z,8.62
2019-05-17T02:07:31.376Z,8.65
2019-05-17T02:08:31.364Z,8.62
2019-05-17T02:09:37.429Z,8.68
2019-05-17T02:10:32.342Z,8.68
2019-05-17T02:11:31.332Z,8.70
2019-05-17T02:12:31.345Z,8.70
2019-05-17T02:13:31.308Z,8.65
2019-05-17T02:14:31.299Z,8.65
2019-05-17T02:15:31.286Z,8.62
2019-05-17T02:16:31.277Z,8.62
2019-05-17T02:17:31.305Z,8.59
2019-05-17T02:18:31.253Z,8.53
2019-05-17T02:19:31.243Z,8.41
2019-05-17T02:20:31.231Z,8.41
2019-05-17T02:21:31.220Z,8.40
2019-05-17T02:22:31.214Z,8.34
2019-05-17T02:23:31.234Z,8.34
2019-05-17T02:24:31.186Z,8.30
2019-05-17T02:25:31.175Z,8.33
2019-05-17T02:26:31.174Z,8.33
2019-05-17T02:27:35.833Z,8.30
2019-05-17T02:28:32.256Z,8.33
2019-05-17T02:29:32.150Z,8.26
2019-05-17T02:30:33.762Z,8.37
2019-05-17T02:31:32.828Z,8.36
2019-05-17T02:32:33.670Z,8.40
2019-05-17T02:33:33.301Z,8.33
2019-05-17T02:34:33.759Z,8.37
2019-05-17T02:35:33.696Z,8.34
2019-05-17T02:36:33.289Z,8.33
2019-05-17T02:37:33.377Z,8.36
2019-05-17T02:38:33.367Z,8.34
2019-05-17T02:39:32.673Z,8.40
2019-05-17T02:40:34.175Z,8.38
2019-05-17T02:41:33.279Z,8.40
2019-05-17T02:42:33.376Z,8.38
2019-05-17T02:43:33.409Z,8.48
2019-05-17T02:44:33.484Z,8.56
2019-05-17T02:45:32.820Z,8.53
2019-05-17T02:46:33.821Z,8.45
2019-05-17T02:47:33.716Z,8.50
2019-05-17T02:48:33.895Z,8.50
2019-05-17T02:49:33.161Z,8.38
2019-05-17T02:50:33.186Z,8.58
2019-05-17T02:51:32.387Z,8.53
2019-05-17T02:52:32.815Z,8.40
2019-05-17T02:53:33.461Z,8.40
2019-05-17T02:54:32.785Z,8.40
2019-05-17T02:55:32.474Z,8.29
2019-05-17T02:56:32.819Z,8.34
2019-05-17T02:57:30.819Z,8.33
2019-05-17T02:58:33.061Z,8.29
2019-05-17T02:59:33.131Z,8.20
2019-05-17T03:00:33.886Z,8.22
2019-05-17T03:01:33.264Z,8.12
2019-05-17T03:02:33.851Z,8.16
2019-05-17T03:03:32.337Z,8.20
2019-05-17T03:04:32.643Z,8.18
2019-05-17T03:05:33.792Z,8.15
2019-05-17T03:06:32.957Z,8.19
2019-05-17T03:07:32.627Z,8.19
2019-05-17T03:08:33.659Z,8.22
2019-05-17T03:09:33.312Z,8.12
2019-05-17T03:10:33.542Z,8.23
2019-05-17T03:11:33.305Z,8.28
2019-05-17T03:12:32.932Z,8.28
2019-05-17T03:13:32.840Z,8.18
2019-05-17T03:14:32.786Z,8.18
2019-05-17T03:15:32.374Z,8.16
2019-05-17T03:16:33.603Z,8.23
2019-05-17T03:17:33.546Z,8.20
2019-05-17T03:18:33.418Z,8.16
2019-05-17T03:19:32.714Z,8.18
2019-05-17T03:20:32.850Z,8.07
2019-05-17T03:21:33.500Z,8.07
2019-05-17T03:22:33.196Z,8.10
2019-05-17T03:23:32.847Z,8.11
2019-05-17T03:24:33.276Z,8.25
2019-05-17T03:25:33.361Z,8.26
2019-05-17T03:26:32.812Z,8.36
2019-05-17T03:27:33.490Z,8.34
2019-05-17T03:28:33.426Z,8.34
2019-05-17T03:29:33.353Z,8.38
2019-05-17T03:30:36.469Z,8.30
2019-05-17T03:31:40.714Z,8.38
2019-05-17T03:32:35.960Z,8.38
2019-05-17T03:33:36.003Z,8.43
2019-05-17T03:34:36.432Z,8.41
2019-05-17T03:35:36.606Z,8.44
2019-05-17T03:36:36.164Z,8.34
2019-05-17T03:37:36.807Z,8.44
2019-05-17T03:38:32.519Z,8.36
2019-05-17T03:39:33.139Z,8.30
2019-05-17T03:41:01.309Z,8.33
2019-05-17T03:41:34.081Z,8.38
2019-05-17T03:42:32.835Z,8.37
2019-05-17T03:43:30.350Z,8.40
2019-05-17T03:44:33.008Z,8.36
2019-05-17T03:45:33.609Z,8.33
2019-05-17T03:46:33.198Z,8.40
2019-05-17T03:47:33.191Z,8.33
2019-05-17T03:48:33.196Z,8.38
2019-05-17T03:49:32.951Z,8.38
2019-05-17T03:50:33.207Z,8.40
2019-05-17T03:51:33.007Z,8.40
2019-05-17T03:52:33.099Z,8.44
2019-05-17T03:53:33.151Z,8.50
2019-05-17T03:54:32.467Z,8.56
2019-05-17T03:55:33.324Z,8.58
2019-05-17T03:56:32.735Z,8.59
2019-05-17T03:57:32.338Z,8.61
2019-05-17T03:58:33.242Z,8.52
2019-05-17T03:59:33.194Z,8.56
2019-05-17T04:00:30.123Z,8.52
2019-05-17T04:01:32.788Z,8.44
2019-05-17T04:02:32.736Z,8.40
2019-05-17T04:03:32.343Z,8.47
2019-05-17T04:04:33.110Z,8.43
2019-05-17T04:05:33.099Z,8.56
2019-05-17T04:06:32.660Z,8.59
2019-05-17T04:07:32.892Z,8.73
2019-05-17T04:08:33.154Z,8.66
2019-05-17T04:09:32.683Z,8.73
2019-05-17T04:10:32.995Z,8.66
2019-05-17T04:11:32.865Z,8.71
2019-05-17T04:12:32.698Z,8.74
2019-05-17T04:13:29.984Z,8.73
2019-05-17T04:14:33.310Z,8.77
2019-05-17T04:15:32.898Z,8.76
2019-05-17T04:16:29.946Z,8.84
2019-05-17T04:17:32.557Z,8.91
2019-05-17T04:18:29.962Z,8.87
2019-05-17T04:19:33.450Z,8.81
2019-05-17T04:20:32.877Z,8.80
2019-05-17T04:21:29.907Z,8.81
2019-05-17T04:22:32.848Z,8.79
2019-05-17T04:23:29.883Z,8.89
2019-05-17T04:24:32.399Z,8.87
2019-05-17T04:25:33.067Z,8.94
2019-05-17T04:26:32.465Z,8.94
2019-05-17T04:27:32.449Z,8.87
2019-05-17T04:28:33.269Z,8.92
2019-05-17T04:29:32.881Z,8.87
2019-05-17T04:30:32.414Z,9.05
2019-05-17T04:31:31.772Z,8.91
2019-05-17T04:32:29.767Z,8.92
2019-05-17T04:33:29.771Z,8.91
2019-05-17T04:34:33.222Z,8.92
2019-05-17T04:35:32.441Z,8.95
2019-05-17T04:36:32.184Z,8.92
2019-05-17T04:37:29.712Z,8.91
2019-05-17T04:38:32.869Z,8.89
2019-05-17T04:39:32.512Z,8.86
2019-05-17T04:40:29.678Z,8.98
2019-05-17T04:41:41.499Z,9.11
2019-05-17T04:42:33.074Z,9.05
2019-05-17T04:43:32.964Z,9.08
2019-05-17T04:44:32.065Z,9.11
2019-05-17T04:45:29.622Z,9.10
2019-05-17T04:46:32.426Z,9.05
2019-05-17T04:47:32.936Z,9.04
2019-05-17T04:48:32.325Z,9.10
2019-05-17T04:49:32.867Z,9.08
2019-05-17T04:50:29.575Z,9.02
2019-05-17T04:51:32.013Z,9.05
2019-05-17T04:52:29.552Z,9.01
2019-05-17T04:53:32.516Z,9.08
2019-05-17T04:54:29.565Z,9.05
2019-05-17T04:55:29.518Z,9.10
2019-05-17T04:56:29.507Z,9.11
2019-05-17T04:57:32.354Z,9.10
2019-05-17T04:58:29.501Z,9.02
2019-05-17T04:59:33.353Z,9.08
2019-05-17T05:00:29.497Z,9.11
2019-05-17T05:01:32.760Z,9.14
2019-05-17T05:02:32.778Z,9.24
2019-05-17T05:03:32.422Z,9.32
2019-05-17T05:04:29.416Z,9.42
2019-05-17T05:05:29.403Z,9.50
2019-05-17T05:06:32.583Z,9.47
2019-05-17T05:07:29.382Z,9.58
2019-05-17T05:08:29.372Z,9.56
2019-05-17T05:09:32.123Z,9.72
2019-05-17T05:10:29.350Z,9.68
2019-05-17T05:11:32.601Z,9.78
2019-05-17T05:12:29.364Z,9.86
2019-05-17T05:13:29.318Z,9.75
2019-05-17T05:14:29.330Z,9.84
2019-05-17T05:15:32.133Z,9.84
2019-05-17T05:16:31.859Z,9.79
2019-05-17T05:17:29.274Z,9.84
2019-05-17T05:18:29.299Z,9.90
2019-05-17T05:19:29.252Z,9.87
2019-05-17T05:20:29.247Z,9.89
2019-05-17T05:21:32.048Z,9.89
2019-05-17T05:22:29.220Z,9.94
2019-05-17T05:23:29.206Z,9.97
2019-05-17T05:24:31.435Z,9.90
2019-05-17T05:25:29.189Z,9.99
2019-05-17T05:26:29.174Z,10.02
2019-05-17T05:27:31.515Z,10.08
2019-05-17T05:28:31.558Z,10.17
2019-05-17T05:29:29.142Z,10.20
2019-05-17T05:30:29.171Z,10.26
2019-05-17T05:31:29.130Z,10.27
2019-05-17T05:32:31.491Z,10.33
2019-05-17T05:33:29.101Z,10.40
2019-05-17T05:34:29.088Z,10.51
2019-05-17T05:35:29.077Z,10.55
2019-05-17T05:36:29.097Z,10.51
2019-05-17T05:37:29.052Z,10.52
2019-05-17T05:38:29.039Z,10.51
2019-05-17T05:39:29.091Z,10.51
2019-05-17T05:40:29.019Z,10.59
2019-05-17T05:41:29.006Z,10.64
2019-05-17T05:42:29.021Z,10.59
2019-05-17T05:43:28.983Z,10.67
2019-05-17T05:44:28.975Z,10.61
2019-05-17T05:45:28.963Z,10.68
2019-05-17T05:46:28.951Z,10.73
2019-05-17T05:47:28.976Z,10.73
2019-05-17T05:48:28.930Z,10.74
2019-05-17T05:49:28.919Z,10.71
2019-05-17T05:50:28.906Z,10.68
2019-05-17T05:51:28.896Z,10.76
2019-05-17T05:52:28.886Z,10.68
2019-05-17T05:53:28.901Z,10.74
2019-05-17T05:54:28.863Z,10.71
2019-05-17T05:55:28.853Z,10.71
2019-05-17T05:56:28.841Z,10.64
2019-05-17T05:57:28.835Z,10.63
2019-05-17T05:58:28.860Z,10.51
2019-05-17T05:59:28.810Z,10.59
2019-05-17T06:00:28.801Z,10.60
2019-05-17T06:01:28.787Z,10.64
2019-05-17T06:02:28.777Z,10.67
2019-05-17T06:03:28.765Z,10.79
2019-05-17T06:04:28.783Z,10.78
2019-05-17T06:05:28.745Z,10.84
2019-05-17T06:06:28.731Z,11.04
2019-05-17T06:07:28.728Z,11.03
2019-05-17T06:08:28.713Z,11.15
2019-05-17T06:09:28.741Z,11.15
2019-05-17T06:10:28.689Z,11.19
2019-05-17T06:11:28.679Z,11.21
2019-05-17T06:12:28.667Z,11.27
2019-05-17T06:13:28.658Z,11.27
2019-05-17T06:14:28.646Z,11.35
2019-05-17T06:15:28.659Z,11.44
2019-05-17T06:16:28.624Z,11.28
2019-05-17T06:17:28.613Z,11.43
2019-05-17T06:18:28.600Z,11.40
2019-05-17T06:19:28.589Z,11.39
2019-05-17T06:20:28.614Z,11.43
2019-05-17T06:21:28.567Z,11.44
2019-05-17T06:22:28.559Z,11.49
2019-05-17T06:23:28.546Z,11.42
2019-05-17T06:24:28.547Z,11.55
2019-05-17T06:25:28.524Z,11.60
2019-05-17T06:26:28.538Z,11.60
2019-05-17T06:27:28.501Z,11.60
2019-05-17T06:28:28.498Z,11.58
2019-05-17T06:29:28.489Z,11.73
2019-05-17T06:30:28.469Z,11.76
2019-05-17T06:31:28.493Z,11.80
2019-05-17T06:32:28.454Z,11.86
2019-05-17T06:33:33.794Z,11.94
2019-05-17T06:34:29.423Z,11.90
2019-05-17T06:35:28.413Z,12.04
2019-05-17T06:36:28.403Z,12.05
2019-05-17T06:37:28.417Z,12.10
2019-05-17T06:38:28.380Z,12.19
2019-05-17T06:39:28.370Z,12.14
2019-05-17T06:40:28.358Z,12.17
2019-05-17T06:41:28.347Z,12.24
2019-05-17T06:42:38.397Z,12.16
2019-05-17T06:43:29.324Z,12.28
2019-05-17T06:44:28.316Z,12.21
2019-05-17T06:45:28.307Z,12.37
2019-05-17T06:46:28.294Z,12.42
2019-05-17T06:47:28.283Z,12.54
2019-05-17T06:48:28.305Z,12.56
2019-05-17T06:49:28.260Z,12.65
2019-05-17T06:50:28.249Z,12.67
2019-05-17T06:51:28.239Z,12.77
2019-05-17T06:52:28.227Z,12.77
2019-05-17T06:53:28.255Z,12.77
2019-05-17T06:54:28.208Z,12.82
2019-05-17T06:55:28.205Z,12.90
2019-05-17T06:56:28.184Z,12.92
2019-05-17T06:57:28.174Z,12.92
2019-05-17T06:58:28.161Z,12.95
2019-05-17T06:59:28.178Z,12.93
2019-05-17T07:00:29.882Z,12.93
2019-05-17T07:01:29.231Z,12.96
2019-05-17T07:02:30.711Z,13.07
2019-05-17T07:03:29.473Z,13.11
2019-05-17T07:04:29.983Z,13.15
2019-05-17T07:05:29.374Z,13.20
2019-05-17T07:06:29.646Z,13.30
2019-05-17T07:07:30.570Z,13.23
2019-05-17T07:08:29.575Z,13.42
2019-05-17T07:09:30.183Z,13.42
2019-05-17T07:10:30.067Z,13.39
2019-05-17T07:11:30.247Z,13.52
2019-05-17T07:12:30.460Z,13.55
2019-05-17T07:13:29.889Z,13.62
2019-05-17T07:14:29.460Z,13.54
2019-05-17T07:15:43.036Z,13.57
2019-05-17T07:16:30.079Z,13.55
2019-05-17T07:17:30.259Z,13.70
2019-05-17T07:18:30.073Z,13.67
2019-05-17T07:19:30.261Z,13.79
2019-05-17T07:20:29.811Z,13.85
2019-05-17T07:21:29.709Z,13.85
2019-05-17T07:22:29.614Z,13.89
2019-05-17T07:23:30.125Z,14.00
2019-05-17T07:24:29.916Z,14.04
2019-05-17T07:25:30.217Z,13.95
2019-05-17T07:26:30.085Z,13.97
2019-05-17T07:27:41.085Z,14.06
2019-05-17T07:28:30.166Z,14.07
2019-05-17T07:29:29.832Z,14.24
2019-05-17T07:30:27.808Z,14.15
2019-05-17T07:31:29.749Z,14.22
2019-05-17T07:32:29.745Z,14.28
2019-05-17T07:33:27.775Z,14.28
2019-05-17T07:34:30.746Z,14.37
2019-05-17T07:35:29.883Z,14.45
2019-05-17T07:36:27.743Z,14.43
2019-05-17T07:37:30.121Z,14.46
2019-05-17T07:38:30.035Z,14.55
2019-05-17T07:39:29.513Z,14.52
2019-05-17T07:40:27.702Z,14.43
2019-05-17T07:41:29.749Z,14.51
2019-05-17T07:42:29.743Z,14.60
2019-05-17T07:43:29.631Z,14.52
2019-05-17T07:44:29.443Z,14.72
2019-05-17T07:45:29.579Z,14.69
2019-05-17T07:46:29.458Z,14.72
2019-05-17T07:47:29.447Z,14.70
2019-05-17T07:48:27.648Z,14.77
2019-05-17T07:49:29.425Z,14.86
2019-05-17T07:50:29.326Z,14.92
2019-05-17T07:51:29.966Z,14.94
2019-05-17T07:52:29.806Z,14.95
2019-05-17T07:53:27.552Z,14.96
2019-05-17T07:54:27.570Z,14.96
2019-05-17T07:55:27.531Z,15.06
2019-05-17T07:56:27.522Z,15.06
2019-05-17T07:57:29.795Z,15.14
2019-05-17T07:58:29.710Z,15.16
2019-05-17T07:59:29.424Z,15.14
2019-05-17T08:00:27.479Z,15.34
2019-05-17T08:01:29.531Z,15.31
2019-05-17T08:02:27.459Z,15.36
2019-05-17T08:03:29.717Z,15.43
2019-05-17T08:04:29.792Z,15.43
2019-05-17T08:05:29.625Z,15.44
2019-05-17T08:06:27.435Z,15.44
2019-05-17T08:07:27.403Z,15.54
2019-05-17T08:08:30.509Z,15.46
2019-05-17T08:09:29.896Z,15.41
2019-05-17T08:10:29.680Z,15.49
2019-05-17T08:11:27.358Z,15.59
2019-05-17T08:12:27.347Z,15.62
2019-05-17T08:13:31.247Z,15.53
2019-05-17T08:14:31.104Z,15.69
2019-05-17T08:15:30.383Z,15.65
2019-05-17T08:16:27.303Z,15.60
2019-05-17T08:17:27.293Z,15.62
2019-05-17T08:18:29.455Z,15.69
2019-05-17T08:19:29.758Z,15.65
2019-05-17T08:20:27.259Z,15.68
2019-05-17T08:21:27.285Z,15.67
2019-05-17T08:22:29.260Z,15.67
2019-05-17T08:23:27.232Z,15.75
2019-05-17T08:24:27.217Z,15.78
2019-05-17T08:25:27.203Z,15.68
2019-05-17T08:26:29.134Z,15.82
2019-05-17T08:27:29.414Z,15.83
2019-05-17T08:28:27.323Z,15.86
2019-05-17T08:29:29.609Z,15.89
2019-05-17T08:30:30.041Z,15.97
2019-05-17T08:31:29.427Z,16.05
2019-05-17T08:32:27.124Z,16.02
2019-05-17T08:33:27.156Z,16.08
2019-05-17T08:34:29.199Z,16.05
2019-05-17T08:35:27.095Z,16.21
2019-05-17T08:36:29.645Z,16.21
2019-05-17T08:37:29.918Z,16.17
2019-05-17T08:38:27.061Z,16.14
2019-05-17T08:39:27.086Z,15.97
2019-05-17T08:40:27.039Z,15.89
2019-05-17T08:41:30.684Z,15.82
2019-05-17T08:42:27.017Z,15.74
2019-05-17T08:43:38.317Z,15.82
2019-05-17T08:44:29.876Z,15.80
2019-05-17T08:45:26.981Z,15.86
2019-05-17T08:46:26.970Z,15.92
2019-05-17T08:47:26.959Z,15.94
2019-05-17T08:48:26.949Z,16.04
2019-05-17T08:49:29.451Z,16.08
2019-05-17T08:50:29.283Z,16.20
2019-05-17T08:51:26.916Z,16.31
2019-05-17T08:52:29.296Z,16.41
2019-05-17T08:53:26.897Z,16.46
2019-05-17T08:54:26.885Z,16.60
2019-05-17T08:55:26.873Z,16.63
2019-05-17T08:56:26.899Z,16.66
2019-05-17T08:57:26.851Z,16.79
2019-05-17T08:58:26.840Z,16.79
2019-05-17T08:59:29.507Z,16.89
2019-05-17T09:00:26.819Z,16.83
2019-05-17T09:01:26.808Z,16.93
2019-05-17T09:02:26.834Z,16.94
2019-05-17T09:03:26.785Z,16.89
2019-05-17T09:04:26.776Z,16.85
2019-05-17T09:05:26.767Z,16.85
2019-05-17T09:06:29.173Z,16.93
2019-05-17T09:07:26.742Z,16.91
2019-05-17T09:08:26.768Z,17.07
2019-05-17T09:09:26.720Z,16.81
2019-05-17T09:10:26.753Z,16.81
2019-05-17T09:11:26.699Z,16.83
2019-05-17T09:12:26.692Z,16.75
2019-05-17T09:13:26.676Z,16.82
2019-05-17T09:14:26.705Z,16.82
2019-05-17T09:15:26.652Z,16.98
2019-05-17T09:16:26.643Z,17.00
2019-05-17T09:17:26.631Z,17.18
2019-05-17T09:18:26.619Z,17.22
2019-05-17T09:19:26.611Z,17.21
2019-05-17T09:20:26.673Z,17.26
2019-05-17T09:21:26.589Z,17.25
2019-05-17T09:22:26.575Z,17.41
2019-05-17T09:23:26.566Z,17.33
2019-05-17T09:24:26.559Z,17.41
2019-05-17T09:25:26.542Z,17.44
2019-05-17T09:26:26.598Z,17.41
2019-05-17T09:27:26.570Z,17.46
2019-05-17T09:28:26.529Z,17.51
2019-05-17T09:29:26.501Z,17.70
2019-05-17T09:30:26.491Z,17.72
2019-05-17T09:31:26.506Z,17.75
2019-05-17T09:32:26.534Z,17.90
2019-05-17T09:33:26.457Z,18.00
2019-05-17T09:34:26.483Z,17.75
2019-05-17T09:35:26.484Z,17.74
2019-05-17T09:36:26.455Z,17.64
2019-05-17T09:37:26.413Z,17.58
2019-05-17T09:38:26.438Z,17.43
2019-05-17T09:39:26.402Z,17.48
2019-05-17T09:40:26.383Z,17.41
2019-05-17T09:41:26.370Z,17.64
2019-05-17T09:42:26.427Z,17.68
2019-05-17T09:43:26.348Z,17.81
2019-05-17T09:44:26.500Z,17.95
2019-05-17T09:45:26.326Z,18.21
2019-05-17T09:46:26.339Z,18.29
2019-05-17T09:47:26.306Z,18.36
2019-05-17T09:48:26.295Z,18.45
2019-05-17T09:49:26.282Z,18.60
2019-05-17T09:50:26.297Z,18.67
2019-05-17T09:51:26.263Z,18.73
2019-05-17T09:52:26.249Z,18.81
2019-05-17T09:53:26.240Z,18.85
2019-05-17T09:54:39.016Z,18.98
2019-05-17T09:55:27.253Z,18.84
2019-05-17T09:56:26.206Z,18.91
2019-05-17T09:57:26.294Z,18.75
2019-05-17T09:58:26.185Z,18.76
2019-05-17T09:59:26.172Z,18.78
2019-05-17T10:00:26.161Z,18.69
2019-05-17T10:01:26.185Z,18.63
2019-05-17T10:02:26.140Z,18.67
2019-05-17T10:03:26.129Z,18.60
2019-05-17T10:04:26.118Z,18.41
2019-05-17T10:05:26.112Z,18.44
2019-05-17T10:06:26.134Z,18.58
2019-05-17T10:07:26.086Z,18.47
2019-05-17T10:08:26.086Z,18.48
2019-05-17T10:09:26.063Z,18.47
2019-05-17T10:10:26.053Z,18.39
2019-05-17T10:11:26.050Z,18.47
2019-05-17T10:12:26.058Z,18.48
2019-05-17T10:13:26.020Z,18.62
2019-05-17T10:14:30.762Z,18.69
2019-05-17T10:15:27.007Z,18.75
2019-05-17T10:16:25.991Z,18.66
2019-05-17T10:17:26.015Z,18.70
2019-05-17T10:18:25.966Z,18.81
2019-05-17T10:19:25.957Z,18.94
2019-05-17T10:20:25.947Z,19.08
2019-05-17T10:21:25.980Z,19.16
2019-05-17T10:22:25.923Z,19.29
2019-05-17T10:23:25.940Z,19.36
2019-05-17T10:24:36.054Z,19.39
2019-05-17T10:25:26.890Z,19.39
2019-05-17T10:26:25.903Z,19.50
2019-05-17T10:27:25.873Z,19.43
2019-05-17T10:28:25.895Z,19.29
2019-05-17T10:29:25.849Z,19.19
2019-05-17T10:30:25.838Z,19.14
2019-05-17T10:31:25.830Z,19.08
2019-05-17T10:32:25.816Z,19.11
2019-05-17T10:33:25.805Z,19.04
2019-05-17T10:34:25.821Z,19.06
2019-05-17T10:35:25.784Z,19.10
2019-05-17T10:36:25.776Z,19.10
2019-05-17T10:37:25.762Z,19.10
2019-05-17T10:38:25.752Z,19.08
2019-05-17T10:39:25.780Z,19.22
2019-05-17T10:40:25.731Z,19.25
2019-05-17T10:41:25.719Z,19.33
2019-05-17T10:42:25.708Z,19.21
2019-05-17T10:43:25.697Z,18.98
2019-05-17T10:44:39.958Z,18.84
2019-05-17T10:45:26.700Z,18.88
2019-05-17T10:46:25.666Z,18.98
2019-05-17T10:47:25.654Z,19.08
2019-05-17T10:48:25.641Z,19.28
2019-05-17T10:49:25.641Z,19.32
2019-05-17T10:50:25.657Z,19.40
2019-05-17T10:51:25.611Z,19.39
2019-05-17T10:52:25.599Z,19.32
2019-05-17T10:53:25.586Z,19.33
2019-05-17T10:54:25.576Z,19.25
2019-05-17T10:55:25.565Z,19.18
2019-05-17T10:56:25.580Z,19.21
2019-05-17T10:57:25.546Z,19.18
2019-05-17T10:58:25.531Z,19.16
2019-05-17T10:59:25.525Z,19.23
2019-05-17T11:00:25.511Z,19.40
2019-05-17T11:01:25.537Z,19.58
2019-05-17T11:02:25.487Z,19.48
2019-05-17T11:03:25.478Z,19.68
2019-05-17T11:04:25.463Z,19.66
2019-05-17T11:05:25.453Z,19.80
2019-05-17T11:06:25.443Z,19.78
2019-05-17T11:07:25.458Z,19.87
2019-05-17T11:08:25.421Z,19.84
2019-05-17T11:09:25.415Z,19.80
2019-05-17T11:10:25.398Z,19.63
2019-05-17T11:11:25.390Z,19.62
2019-05-17T11:12:25.414Z,19.59
2019-05-17T11:13:25.372Z,19.76
2019-05-17T11:14:25.359Z,19.66
2019-05-17T11:15:25.348Z,19.71
2019-05-17T11:16:25.338Z,19.61
2019-05-17T11:17:25.328Z,19.62
2019-05-17T11:18:25.339Z,19.55
2019-05-17T11:19:25.303Z,19.55
2019-05-17T11:20:25.298Z,19.61
2019-05-17T11:21:25.287Z,19.48
2019-05-17T11:22:25.271Z,19.36
2019-05-17T11:23:25.299Z,19.18
2019-05-17T11:24:25.250Z,19.28
2019-05-17T11:25:25.241Z,19.25
2019-05-17T11:26:25.227Z,19.19
2019-05-17T11:27:25.217Z,19.26
2019-05-17T11:28:25.205Z,19.18
2019-05-17T11:29:25.218Z,19.21
2019-05-17T11:30:25.187Z,19.07
2019-05-17T11:31:25.172Z,19.00
2019-05-17T11:32:25.161Z,18.95
2019-05-17T11:33:25.186Z,18.95
2019-05-17T11:34:25.744Z,19.08
2019-05-17T11:35:25.168Z,19.14
2019-05-17T11:36:25.149Z,19.18
2019-05-17T11:37:25.134Z,19.16
2019-05-17T11:38:25.117Z,18.98
2019-05-17T11:39:25.108Z,19.00
2019-05-17T11:40:25.152Z,18.99
2019-05-17T11:41:25.061Z,19.04
2019-05-17T11:42:25.054Z,19.07
2019-05-17T11:43:25.037Z,19.22
2019-05-17T11:44:25.029Z,19.28
2019-05-17T11:45:29.094Z,19.39
2019-05-17T11:46:35.761Z,19.46
2019-05-17T11:47:26.020Z,19.43
2019-05-17T11:48:25.008Z,19.55
2019-05-17T11:49:25.015Z,19.46
2019-05-17T11:50:24.989Z,19.39
2019-05-17T11:51:27.390Z,19.28
2019-05-17T11:52:24.973Z,19.25
2019-05-17T11:53:24.954Z,19.26
2019-05-17T11:54:24.957Z,19.25
2019-05-17T11:55:24.930Z,19.32
2019-05-17T11:56:24.892Z,19.21
2019-05-17T11:57:24.882Z,19.14
2019-05-17T11:58:24.885Z,19.16
2019-05-17T11:59:24.878Z,19.28
2019-05-17T12:00:24.876Z,19.25
2019-05-17T12:01:24.839Z,19.11
2019-05-17T12:02:24.846Z,18.99
2019-05-17T12:03:24.813Z,18.98
2019-05-17T12:04:24.804Z,18.73
2019-05-17T12:05:24.825Z,18.76
2019-05-17T12:06:24.782Z,18.87
2019-05-17T12:07:24.784Z,18.98
2019-05-17T12:08:24.774Z,19.13
2019-05-17T12:09:36.521Z,19.18
2019-05-17T12:10:25.857Z,19.32
2019-05-17T12:11:24.725Z,19.26
2019-05-17T12:12:24.816Z,19.19
2019-05-17T12:13:24.708Z,19.31
2019-05-17T12:14:24.776Z,19.36
2019-05-17T12:15:24.681Z,19.58
2019-05-17T12:16:24.668Z,19.71
2019-05-17T12:17:24.658Z,19.83
2019-05-17T12:18:24.646Z,20.10
2019-05-17T12:19:24.635Z,20.28
2019-05-17T12:20:24.660Z,20.48
2019-05-17T12:21:24.612Z,20.72
2019-05-17T12:22:24.603Z,20.84
2019-05-17T12:23:24.591Z,20.95
2019-05-17T12:24:24.580Z,20.88
2019-05-17T12:25:24.605Z,20.95
2019-05-17T12:26:24.562Z,20.99
2019-05-17T12:27:24.550Z,21.04
2019-05-17T12:28:24.540Z,21.28
2019-05-17T12:29:24.528Z,21.43
2019-05-17T12:30:24.532Z,21.80
2019-05-17T12:31:24.529Z,21.80
2019-05-17T12:32:24.495Z,21.72
2019-05-17T12:33:24.492Z,21.86
2019-05-17T12:34:24.515Z,21.86
2019-05-17T12:35:24.462Z,21.96
2019-05-17T12:36:24.488Z,22.17
2019-05-17T12:37:24.439Z,22.39
2019-05-17T12:38:24.429Z,22.39
2019-05-17T12:39:24.422Z,22.40
2019-05-17T12:40:24.408Z,22.51
2019-05-17T12:41:24.400Z,22.36
2019-05-17T12:42:24.408Z,22.25
2019-05-17T12:43:24.374Z,22.06
2019-05-17T12:44:24.409Z,21.82
2019-05-17T12:45:24.353Z,21.61
2019-05-17T12:46:24.341Z,21.62
2019-05-17T12:47:24.368Z,21.61
2019-05-17T12:48:24.322Z,21.67
2019-05-17T12:49:24.316Z,21.50
2019-05-17T12:50:24.301Z,21.49
2019-05-17T12:51:24.520Z,21.64
2019-05-17T12:52:24.275Z,21.68
2019-05-17T12:53:24.288Z,21.74
2019-05-17T12:54:24.257Z,21.58
2019-05-17T12:55:24.242Z,21.61
2019-05-17T12:56:24.230Z,21.64
2019-05-17T12:57:24.219Z,21.62
2019-05-17T12:58:24.245Z,21.74
2019-05-17T12:59:24.199Z,21.69
2019-05-17T13:00:24.189Z,21.75
2019-05-17T13:01:24.176Z,21.71
2019-05-17T13:02:24.171Z,21.69
2019-05-17T13:03:24.160Z,21.71